createdAt,value
2017-06-27T00:00:24.164Z,48.49
2017-06-27T00:01:04.619Z,48.59
2017-06-27T00:01:45.076Z,48.59
2017-06-27T00:02:25.535Z,48.49
2017-06-27T00:03:05.988Z,48.39
2017-06-27T00:03:46.442Z,48.79
2017-06-27T00:04:26.903Z,48.49
2017-06-27T00:05:07.371Z,48.59
2017-06-27T00:05:47.829Z,48.79
2017-06-27T00:06:28.288Z,48.59
2017-06-27T00:07:08.746Z,48.59
2017-06-27T00:07:49.202Z,48.59
2017-06-27T00:08:29.659Z,48.59
2017-06-27T00:09:10.112Z,48.59
2017-06-27T00:09:50.576Z,48.49
2017-06-27T00:10:31.033Z,48.69
2017-06-27T00:11:11.498Z,48.88
2017-06-27T00:11:51.957Z,48.97
2017-06-27T00:12:32.410Z,48.88
2017-06-27T00:13:12.868Z,48.97
2017-06-27T00:13:53.326Z,49.07
2017-06-27T00:14:33.785Z,48.88
2017-06-27T00:15:14.243Z,48.88
2017-06-27T00:15:54.727Z,48.79
2017-06-27T00:16:35.158Z,48.88
2017-06-27T00:17:15.616Z,49.27
2017-06-27T00:17:56.074Z,49.37
2017-06-27T00:18:36.535Z,49.37
2017-06-27T00:19:16.993Z,49.46
2017-06-27T00:19:57.452Z,49.17
2017-06-27T00:20:37.911Z,49.17
2017-06-27T00:21:18.367Z,49.27
2017-06-27T00:21:58.828Z,49.27
2017-06-27T00:22:39.285Z,49.37
2017-06-27T00:23:19.744Z,48.97
2017-06-27T00:24:00.204Z,49.27
2017-06-27T00:24:40.649Z,49.17
2017-06-27T00:25:21.097Z,49.17
2017-06-27T00:27:08.772Z,49.17
2017-06-27T00:27:49.231Z,49.27
2017-06-27T00:28:29.678Z,49.17
2017-06-27T00:29:10.142Z,49.07
2017-06-27T00:29:50.602Z,49.17
2017-06-27T00:30:31.052Z,49.07
2017-06-27T00:31:11.513Z,49.37
2017-06-27T00:31:51.967Z,49.07
2017-06-27T00:32:32.428Z,49.37
2017-06-27T00:33:12.885Z,49.37
2017-06-27T00:33:53.343Z,49.17
2017-06-27T00:34:33.804Z,49.65
2017-06-27T00:35:14.258Z,49.56
2017-06-27T00:35:54.721Z,49.68
2017-06-27T00:36:35.180Z,49.46
2017-06-27T00:37:15.629Z,49.46
2017-06-27T00:37:56.077Z,49.46
2017-06-27T00:38:36.539Z,49.46
2017-06-27T00:39:17.002Z,49.37
2017-06-27T00:39:57.459Z,49.37
2017-06-27T00:40:37.917Z,49.46
2017-06-27T00:41:18.371Z,49.37
2017-06-27T00:41:58.825Z,49.37
2017-06-27T00:42:39.282Z,49.37
2017-06-27T00:43:19.741Z,49.46
2017-06-27T00:44:00.199Z,49.37
2017-06-27T00:44:40.655Z,49.46
2017-06-27T00:45:21.127Z,49.37
2017-06-27T00:46:01.560Z,49.27
2017-06-27T00:46:42.006Z,49.65
2017-06-27T00:47:22.466Z,49.37
2017-06-27T00:48:02.921Z,49.37
2017-06-27T00:48:43.382Z,49.65
2017-06-27T00:49:23.849Z,49.65
2017-06-27T00:50:04.303Z,49.65
2017-06-27T00:50:44.771Z,49.65
2017-06-27T00:51:25.225Z,49.75
2017-06-27T00:52:05.672Z,49.75
2017-06-27T00:52:46.118Z,49.95
2017-06-27T00:53:26.577Z,50.04
2017-06-27T00:54:07.036Z,49.95
2017-06-27T00:54:47.492Z,49.95
2017-06-27T00:55:27.950Z,50.04
2017-06-27T00:56:08.413Z,49.95
2017-06-27T00:56:48.868Z,49.85
2017-06-27T00:57:29.324Z,49.95
2017-06-27T00:58:09.782Z,49.95
2017-06-27T00:58:50.242Z,50.04
2017-06-27T00:59:30.696Z,50.04
2017-06-27T01:00:11.151Z,49.75
2017-06-27T01:00:51.613Z,49.75
2017-06-27T01:01:32.070Z,49.85
2017-06-27T01:02:12.530Z,49.85
2017-06-27T01:02:53.006Z,49.87
2017-06-27T01:03:33.467Z,49.85
2017-06-27T01:04:13.923Z,49.65
2017-06-27T01:04:54.379Z,49.75
2017-06-27T01:05:34.826Z,50.26
2017-06-27T01:06:15.285Z,49.95
2017-06-27T01:06:55.740Z,49.95
2017-06-27T01:07:36.198Z,50.04
2017-06-27T01:08:16.646Z,50.26
2017-06-27T01:08:57.107Z,50.14
2017-06-27T01:09:37.566Z,50.14
2017-06-27T01:10:18.022Z,49.75
2017-06-27T01:10:58.480Z,49.75
2017-06-27T01:11:38.946Z,49.95
2017-06-27T01:12:19.404Z,50.14
2017-06-27T01:12:59.859Z,50.14
2017-06-27T01:13:40.312Z,50.24
2017-06-27T01:14:20.773Z,50.14
2017-06-27T01:15:01.221Z,49.85
2017-06-27T01:15:41.688Z,49.85
2017-06-27T01:16:22.158Z,50.24
2017-06-27T01:17:02.622Z,50.24
2017-06-27T01:17:43.082Z,49.95
2017-06-27T01:18:23.534Z,49.75
2017-06-27T01:19:03.992Z,49.85
2017-06-27T01:19:44.447Z,50.04
2017-06-27T01:20:24.890Z,49.95
2017-06-27T01:21:05.352Z,49.85
2017-06-27T01:21:45.806Z,50.14
2017-06-27T01:22:26.251Z,49.95
2017-06-27T01:23:06.714Z,50.14
2017-06-27T01:23:47.169Z,50.24
2017-06-27T01:24:27.631Z,50.52
2017-06-27T01:25:08.090Z,50.92
2017-06-27T01:25:48.549Z,50.92
2017-06-27T01:26:29.006Z,50.62
2017-06-27T01:27:09.467Z,50.52
2017-06-27T01:27:49.926Z,50.52
2017-06-27T01:28:30.384Z,50.52
2017-06-27T01:29:10.842Z,50.43
2017-06-27T01:29:51.289Z,50.43
2017-06-27T01:30:31.753Z,50.62
2017-06-27T01:31:12.220Z,50.52
2017-06-27T01:31:52.671Z,50.62
2017-06-27T01:32:33.123Z,50.92
2017-06-27T01:33:13.574Z,50.92
2017-06-27T01:33:54.032Z,50.62
2017-06-27T01:34:34.488Z,50.82
2017-06-27T01:35:14.947Z,50.43
2017-06-27T01:35:55.409Z,50.62
2017-06-27T01:36:35.867Z,50.62
2017-06-27T01:37:16.323Z,50.92
2017-06-27T01:37:56.786Z,50.92
2017-06-27T01:38:37.243Z,50.33
2017-06-27T01:39:17.703Z,50.82
2017-06-27T01:39:58.159Z,50.72
2017-06-27T01:40:38.621Z,50.62
2017-06-27T01:41:19.081Z,50.62
2017-06-27T01:41:59.540Z,50.52
2017-06-27T01:42:39.994Z,50.62
2017-06-27T01:43:20.466Z,50.62
2017-06-27T01:44:00.924Z,51.01
2017-06-27T01:44:41.382Z,50.82
2017-06-27T01:45:21.852Z,50.82
2017-06-27T01:46:02.288Z,50.92
2017-06-27T01:46:42.742Z,50.92
2017-06-27T01:47:23.198Z,50.82
2017-06-27T01:48:03.657Z,50.33
2017-06-27T01:48:44.113Z,50.33
2017-06-27T01:49:24.569Z,50.24
2017-06-27T01:50:05.025Z,50.04
2017-06-27T01:50:45.492Z,50.24
2017-06-27T01:51:25.949Z,49.85
2017-06-27T01:52:06.413Z,50.04
2017-06-27T01:52:46.867Z,49.95
2017-06-27T01:53:27.320Z,49.95
2017-06-27T01:54:07.778Z,49.97
2017-06-27T01:54:48.233Z,50.24
2017-06-27T01:55:28.689Z,50.04
2017-06-27T01:56:09.141Z,50.14
2017-06-27T01:56:49.597Z,49.75
2017-06-27T01:57:30.051Z,49.85
2017-06-27T01:58:10.502Z,49.65
2017-06-27T01:58:50.946Z,50.04
2017-06-27T01:59:31.407Z,49.95
2017-06-27T02:00:11.853Z,50.16
2017-06-27T02:00:52.317Z,50.26
2017-06-27T02:01:32.772Z,49.68
2017-06-27T02:02:13.239Z,49.68
2017-06-27T02:02:53.693Z,49.68
2017-06-27T02:03:34.153Z,49.87
2017-06-27T02:04:14.609Z,49.58
2017-06-27T02:04:55.065Z,49.77
2017-06-27T02:05:35.521Z,49.87
2017-06-27T02:06:15.980Z,49.29
2017-06-27T02:06:56.430Z,49.68
2017-06-27T02:07:36.886Z,49.39
2017-06-27T02:08:17.335Z,49.58
2017-06-27T02:08:57.768Z,49.68
2017-06-27T02:09:38.216Z,49.58
2017-06-27T02:10:18.679Z,49.77
2017-06-27T02:10:59.114Z,49.68
2017-06-27T02:11:39.578Z,49.68
2017-06-27T02:12:20.011Z,49.68
2017-06-27T02:13:00.458Z,49.68
2017-06-27T02:13:40.923Z,49.87
2017-06-27T02:14:21.346Z,49.58
2017-06-27T02:15:01.771Z,49.87
2017-06-27T02:15:42.222Z,49.77
2017-06-27T02:16:22.652Z,49.68
2017-06-27T02:17:03.095Z,49.87
2017-06-27T02:17:43.525Z,50.16
2017-06-27T02:18:23.973Z,49.97
2017-06-27T02:19:04.382Z,50.16
2017-06-27T02:19:44.815Z,49.68
2017-06-27T02:20:25.251Z,49.87
2017-06-27T02:21:05.703Z,49.68
2017-06-27T02:21:46.149Z,49.87
2017-06-27T02:22:26.606Z,49.87
2017-06-27T02:23:07.055Z,49.29
2017-06-27T02:23:47.512Z,49.29
2017-06-27T02:24:27.964Z,49.29
2017-06-27T02:25:08.420Z,49.39
2017-06-27T02:25:48.878Z,49.29
2017-06-27T02:26:29.337Z,49.29
2017-06-27T02:27:09.794Z,49.77
2017-06-27T02:27:50.251Z,49.77
2017-06-27T02:28:30.698Z,49.49
2017-06-27T02:29:11.189Z,49.58
2017-06-27T02:29:51.648Z,49.39
2017-06-27T02:30:32.106Z,49.29
2017-06-27T02:31:12.570Z,49.29
2017-06-27T02:31:53.028Z,49.39
2017-06-27T02:32:33.482Z,49.49
2017-06-27T02:33:13.939Z,49.29
2017-06-27T02:33:54.395Z,49.68
2017-06-27T02:34:34.853Z,49.49
2017-06-27T02:35:15.309Z,49.68
2017-06-27T02:35:55.764Z,49.58
2017-06-27T02:36:36.209Z,49.58
2017-06-27T02:37:16.661Z,49.58
2017-06-27T02:37:57.116Z,49.49
2017-06-27T02:38:37.563Z,49.58
2017-06-27T02:39:18.012Z,49.49
2017-06-27T02:39:58.473Z,49.19
2017-06-27T02:40:38.934Z,49.68
2017-06-27T02:41:20.131Z,49.29
2017-06-27T02:42:00.593Z,49.39
2017-06-27T02:42:41.047Z,49.39
2017-06-27T02:43:21.511Z,49.29
2017-06-27T02:44:01.974Z,49.39
2017-06-27T02:44:42.431Z,49.1
2017-06-27T02:45:22.887Z,49.49
2017-06-27T02:46:03.338Z,49.68
2017-06-27T02:46:43.794Z,49.77
2017-06-27T02:47:24.269Z,49.49
2017-06-27T02:48:04.703Z,49.58
2017-06-27T02:48:45.156Z,49.39
2017-06-27T02:49:25.619Z,49.49
2017-06-27T02:50:06.075Z,49.29
2017-06-27T02:50:46.533Z,49.77
2017-06-27T02:51:26.978Z,49.68
2017-06-27T02:52:07.457Z,49.77
2017-06-27T02:52:47.919Z,49.87
2017-06-27T02:53:28.370Z,50.07
2017-06-27T02:54:08.836Z,50.07
2017-06-27T02:54:49.289Z,49.85
2017-06-27T02:55:29.748Z,50.04
2017-06-27T02:56:10.205Z,49.87
2017-06-27T02:56:50.666Z,49.75
2017-06-27T02:57:31.127Z,50.16
2017-06-27T02:58:11.584Z,49.68
2017-06-27T02:58:52.047Z,49.97
2017-06-27T02:59:32.506Z,50.26
2017-06-27T03:00:12.960Z,50.07
2017-06-27T03:00:53.417Z,50.07
2017-06-27T03:01:33.873Z,50.07
2017-06-27T03:02:14.324Z,50.04
2017-06-27T03:02:54.771Z,50.07
2017-06-27T03:03:35.210Z,49.95
2017-06-27T03:04:15.665Z,49.68
2017-06-27T03:04:56.118Z,50.26
2017-06-27T03:05:36.563Z,49.68
2017-06-27T03:06:17.029Z,49.68
2017-06-27T03:06:57.482Z,49.77
2017-06-27T03:07:37.938Z,49.58
2017-06-27T03:08:18.396Z,49.68
2017-06-27T03:08:58.853Z,49.68
2017-06-27T03:09:39.313Z,49.68
2017-06-27T03:10:19.764Z,49.58
2017-06-27T03:11:00.220Z,49.68
2017-06-27T03:11:40.676Z,49.87
2017-06-27T03:12:21.123Z,49.97
2017-06-27T03:13:01.604Z,50.07
2017-06-27T03:13:42.054Z,50.04
2017-06-27T03:14:22.542Z,49.95
2017-06-27T03:15:02.998Z,50.07
2017-06-27T03:15:43.459Z,50.07
2017-06-27T03:16:23.920Z,49.87
2017-06-27T03:17:04.376Z,49.77
2017-06-27T03:17:44.833Z,49.95
2017-06-27T03:18:25.276Z,49.95
2017-06-27T03:19:05.714Z,50.04
2017-06-27T03:19:46.171Z,50.16
2017-06-27T03:20:26.630Z,50.14
2017-06-27T03:21:07.084Z,50.14
2017-06-27T03:21:47.542Z,50.04
2017-06-27T03:22:28.003Z,49.75
2017-06-27T03:23:08.458Z,49.95
2017-06-27T03:23:48.921Z,50.04
2017-06-27T03:24:29.374Z,50.07
2017-06-27T03:25:09.830Z,49.95
2017-06-27T03:25:50.291Z,49.95
2017-06-27T03:26:30.749Z,50.04
2017-06-27T03:27:11.202Z,50.04
2017-06-27T03:27:51.648Z,50.04
2017-06-27T03:28:32.105Z,49.95
2017-06-27T03:29:12.567Z,50.04
2017-06-27T03:29:53.023Z,49.95
2017-06-27T03:30:33.471Z,50.04
2017-06-27T03:31:13.936Z,49.95
2017-06-27T03:31:54.387Z,49.95
2017-06-27T03:32:34.845Z,50.14
2017-06-27T03:33:15.304Z,50.04
2017-06-27T03:33:55.746Z,50.04
2017-06-27T03:34:36.211Z,50.04
2017-06-27T03:35:16.667Z,50.04
2017-06-27T03:35:57.129Z,50.04
2017-06-27T03:36:37.598Z,50.04
2017-06-27T03:37:18.026Z,49.85
2017-06-27T03:37:58.489Z,50.04
2017-06-27T03:38:38.947Z,50.16
2017-06-27T03:39:19.405Z,50.24
2017-06-27T03:39:59.868Z,49.95
2017-06-27T03:40:40.327Z,49.85
2017-06-27T03:41:20.784Z,50.24
2017-06-27T03:42:01.244Z,50.33
2017-06-27T03:42:41.702Z,50.33
2017-06-27T03:43:22.179Z,50.92
2017-06-27T03:44:02.635Z,50.62
2017-06-27T03:44:43.090Z,50.33
2017-06-27T03:45:23.545Z,50.43
2017-06-27T03:46:04.002Z,50.52
2017-06-27T03:46:44.487Z,50.82
2017-06-27T03:47:24.940Z,50.82
2017-06-27T03:48:05.407Z,50.72
2017-06-27T03:48:45.854Z,51.1
2017-06-27T03:49:26.328Z,51.3
2017-06-27T03:50:06.788Z,51.68
2017-06-27T03:50:47.249Z,51.4
2017-06-27T03:51:27.710Z,51.78
2017-06-27T03:52:08.170Z,51.68
2017-06-27T03:52:48.628Z,51.62
2017-06-27T03:53:29.089Z,51.52
2017-06-27T03:54:09.541Z,51.81
2017-06-27T03:54:50.000Z,51.81
2017-06-27T03:55:30.514Z,51.98
2017-06-27T03:56:10.968Z,52.1
2017-06-27T03:56:51.426Z,51.62
2017-06-27T03:57:31.886Z,51.9
2017-06-27T03:58:12.346Z,51.9
2017-06-27T03:58:52.808Z,52
2017-06-27T03:59:33.264Z,51.81
2017-06-27T04:00:13.723Z,51.9
2017-06-27T04:00:54.184Z,51.81
2017-06-27T04:01:34.642Z,51.81
2017-06-27T04:02:15.098Z,51.9
2017-06-27T04:02:55.561Z,51.9
2017-06-27T04:03:36.025Z,51.62
2017-06-27T04:04:16.484Z,51.62
2017-06-27T04:04:56.940Z,51.81
2017-06-27T04:05:37.401Z,51.9
2017-06-27T04:06:17.859Z,51.9
2017-06-27T04:06:58.317Z,51.9
2017-06-27T04:07:38.779Z,51.81
2017-06-27T04:08:19.237Z,51.9
2017-06-27T04:08:59.702Z,51.62
2017-06-27T04:09:40.159Z,51.9
2017-06-27T04:10:20.622Z,51.62
2017-06-27T04:11:01.079Z,51.62
2017-06-27T04:11:41.543Z,51.62
2017-06-27T04:12:22.006Z,51.81
2017-06-27T04:13:02.463Z,51.81
2017-06-27T04:13:42.956Z,51.72
2017-06-27T04:14:23.416Z,51.42
2017-06-27T04:15:03.875Z,51.45
2017-06-27T04:15:44.334Z,51.54
2017-06-27T04:16:24.798Z,51.23
2017-06-27T04:17:05.250Z,51.54
2017-06-27T04:17:45.712Z,51.25
2017-06-27T04:18:26.171Z,51.64
2017-06-27T04:19:06.629Z,51.84
2017-06-27T04:19:47.091Z,51.54
2017-06-27T04:20:27.549Z,51.54
2017-06-27T04:21:08.003Z,51.74
2017-06-27T04:21:48.465Z,51.25
2017-06-27T04:22:28.923Z,51.16
2017-06-27T04:23:09.379Z,51.16
2017-06-27T04:23:49.845Z,51.25
2017-06-27T04:24:30.295Z,51.45
2017-06-27T04:25:10.757Z,51.35
2017-06-27T04:25:51.192Z,51.35
2017-06-27T04:26:31.655Z,51.06
2017-06-27T04:27:12.136Z,51.16
2017-06-27T04:27:52.610Z,51.16
2017-06-27T04:28:33.069Z,51.16
2017-06-27T04:29:13.521Z,51.06
2017-06-27T04:29:53.981Z,51.06
2017-06-27T04:30:34.437Z,51.06
2017-06-27T04:31:14.891Z,51.16
2017-06-27T04:31:55.356Z,51.16
2017-06-27T04:32:35.805Z,51.16
2017-06-27T04:33:16.264Z,51.06
2017-06-27T04:33:56.718Z,51.16
2017-06-27T04:34:37.182Z,50.96
2017-06-27T04:35:17.635Z,51.06
2017-06-27T04:35:58.100Z,50.96
2017-06-27T04:36:38.555Z,51.16
2017-06-27T04:37:19.038Z,51.06
2017-06-27T04:37:59.493Z,50.87
2017-06-27T04:38:39.952Z,50.96
2017-06-27T04:39:20.410Z,51.06
2017-06-27T04:40:00.867Z,51.06
2017-06-27T04:40:41.328Z,50.87
2017-06-27T04:41:21.793Z,51.16
2017-06-27T04:42:02.249Z,50.87
2017-06-27T04:42:42.711Z,51.16
2017-06-27T04:43:23.168Z,50.96
2017-06-27T04:44:03.628Z,50.87
2017-06-27T04:44:44.095Z,50.87
2017-06-27T04:45:24.544Z,50.87
2017-06-27T04:46:05.000Z,50.77
2017-06-27T04:46:45.454Z,50.96
2017-06-27T04:47:25.915Z,50.87
2017-06-27T04:48:06.372Z,51.06
2017-06-27T04:48:46.828Z,50.87
2017-06-27T04:49:27.289Z,50.96
2017-06-27T04:50:07.745Z,50.96
2017-06-27T04:50:48.207Z,50.96
2017-06-27T04:51:28.664Z,50.96
2017-06-27T04:52:09.125Z,50.87
2017-06-27T04:52:49.594Z,50.67
2017-06-27T04:53:30.032Z,50.87
2017-06-27T04:54:10.493Z,51.28
2017-06-27T04:54:50.949Z,51.25
2017-06-27T04:55:31.411Z,50.57
2017-06-27T04:56:11.867Z,51.25
2017-06-27T04:56:52.328Z,50.57
2017-06-27T04:57:32.780Z,50.7
2017-06-27T04:58:13.231Z,51.16
2017-06-27T04:58:53.690Z,50.67
2017-06-27T04:59:34.147Z,50.79
2017-06-27T05:00:14.606Z,51.16
2017-06-27T05:00:55.065Z,51.16
2017-06-27T05:01:35.527Z,50.77
2017-06-27T05:02:15.985Z,50.96
2017-06-27T05:02:56.440Z,50.87
2017-06-27T05:03:36.903Z,50.79
2017-06-27T05:04:17.356Z,51.18
2017-06-27T05:04:57.814Z,50.77
2017-06-27T05:05:38.270Z,50.89
2017-06-27T05:06:18.737Z,50.77
2017-06-27T05:06:59.197Z,50.79
2017-06-27T05:07:39.649Z,50.79
2017-06-27T05:08:20.105Z,50.89
2017-06-27T05:09:00.567Z,50.77
2017-06-27T05:09:41.030Z,50.7
2017-06-27T05:10:21.482Z,50.96
2017-06-27T05:11:01.955Z,50.79
2017-06-27T05:11:42.414Z,50.77
2017-06-27T05:12:22.912Z,50.79
2017-06-27T05:13:03.364Z,50.67
2017-06-27T05:13:43.812Z,50.96
2017-06-27T05:14:24.278Z,50.77
2017-06-27T05:15:04.726Z,50.77
2017-06-27T05:15:45.339Z,50.77
2017-06-27T05:16:25.799Z,50.77
2017-06-27T05:17:06.283Z,50.77
2017-06-27T05:17:46.730Z,50.77
2017-06-27T05:18:27.288Z,50.77
2017-06-27T05:19:07.803Z,50.79
2017-06-27T05:19:48.193Z,50.87
2017-06-27T05:20:28.614Z,50.77
2017-06-27T05:21:09.061Z,50.77
2017-06-27T05:21:49.520Z,50.87
2017-06-27T05:22:29.974Z,50.77
2017-06-27T05:23:10.853Z,50.87
2017-06-27T05:23:51.296Z,50.77
2017-06-27T05:24:31.764Z,50.77
2017-06-27T05:25:12.226Z,51.25
2017-06-27T05:25:52.688Z,50.96
2017-06-27T05:26:36.067Z,50.96
2017-06-27T05:27:16.581Z,51.16
2017-06-27T05:27:57.027Z,51.06
2017-06-27T05:28:37.489Z,50.99
2017-06-27T05:29:17.930Z,50.87
2017-06-27T05:29:58.396Z,51.06
2017-06-27T05:30:38.872Z,50.96
2017-06-27T05:31:19.341Z,50.96
2017-06-27T05:31:59.808Z,50.96
2017-06-27T05:32:40.267Z,51.06
2017-06-27T05:33:20.727Z,51.16
2017-06-27T05:34:01.219Z,51.06
2017-06-27T05:34:41.696Z,51.25
2017-06-27T05:35:22.170Z,51.16
2017-06-27T05:36:02.644Z,51.25
2017-06-27T05:36:43.128Z,51.06
2017-06-27T05:37:23.568Z,51.18
2017-06-27T05:38:04.023Z,51.06
2017-06-27T05:38:44.486Z,51.16
2017-06-27T05:39:24.941Z,51.18
2017-06-27T05:40:05.401Z,51.16
2017-06-27T05:40:45.862Z,51.16
2017-06-27T05:41:26.326Z,51.16
2017-06-27T05:42:06.789Z,51.16
2017-06-27T05:42:47.262Z,51.16
2017-06-27T05:43:27.709Z,51.16
2017-06-27T05:44:08.168Z,51.16
2017-06-27T05:44:48.628Z,51.16
2017-06-27T05:45:29.097Z,51.16
2017-06-27T05:46:09.560Z,51.06
2017-06-27T05:46:50.021Z,51.16
2017-06-27T05:47:30.483Z,51.16
2017-06-27T05:48:10.944Z,51.16
2017-06-27T05:48:51.397Z,51.16
2017-06-27T05:49:31.850Z,51.16
2017-06-27T05:50:12.308Z,51.28
2017-06-27T05:50:52.770Z,51.06
2017-06-27T05:51:33.228Z,51.09
2017-06-27T05:52:13.689Z,51.06
2017-06-27T05:52:54.149Z,51.25
2017-06-27T05:53:34.608Z,51.06
2017-06-27T05:54:15.071Z,51.06
2017-06-27T05:54:55.529Z,51.09
2017-06-27T05:55:35.989Z,51.06
2017-06-27T05:56:16.448Z,51.18
2017-06-27T05:56:56.906Z,51.06
2017-06-27T05:57:37.358Z,51.18
2017-06-27T05:58:17.813Z,51.16
2017-06-27T05:58:58.268Z,50.96
2017-06-27T05:59:38.727Z,51.18
2017-06-27T06:00:19.185Z,51.16
2017-06-27T06:00:59.645Z,51.06
2017-06-27T06:01:40.102Z,51.16
2017-06-27T06:02:20.561Z,51.18
2017-06-27T06:03:01.021Z,51.09
2017-06-27T06:03:41.470Z,51.16
2017-06-27T06:04:21.923Z,51.16
2017-06-27T06:05:02.376Z,51.09
2017-06-27T06:05:42.837Z,51.09
2017-06-27T06:06:23.294Z,51.16
2017-06-27T06:07:03.755Z,51.09
2017-06-27T06:07:44.215Z,51.18
2017-06-27T06:08:24.673Z,50.96
2017-06-27T06:09:05.141Z,51.06
2017-06-27T06:09:45.595Z,50.96
2017-06-27T06:10:26.072Z,51.09
2017-06-27T06:11:06.530Z,51.18
2017-06-27T06:11:46.987Z,50.89
2017-06-27T06:12:27.449Z,51.09
2017-06-27T06:13:07.913Z,51.09
2017-06-27T06:13:48.371Z,50.87
2017-06-27T06:14:28.890Z,50.99
2017-06-27T06:15:09.384Z,50.89
2017-06-27T06:15:49.841Z,50.96
2017-06-27T06:16:30.286Z,50.79
2017-06-27T06:17:10.748Z,50.89
2017-06-27T06:17:51.210Z,51.09
2017-06-27T06:18:31.658Z,50.87
2017-06-27T06:19:12.113Z,51.09
2017-06-27T06:19:52.578Z,51.09
2017-06-27T06:20:33.025Z,51.16
2017-06-27T06:21:13.488Z,51.18
2017-06-27T06:21:53.950Z,50.99
2017-06-27T06:22:34.406Z,51.18
2017-06-27T06:23:14.865Z,51.28
2017-06-27T06:23:55.320Z,51.18
2017-06-27T06:24:35.792Z,51.18
2017-06-27T06:25:16.248Z,51.35
2017-06-27T06:25:56.695Z,51.28
2017-06-27T06:26:37.168Z,51.18
2017-06-27T06:27:17.631Z,51.18
2017-06-27T06:27:58.090Z,50.99
2017-06-27T06:28:38.543Z,51.18
2017-06-27T06:29:18.992Z,51.09
2017-06-27T06:29:59.448Z,51.09
2017-06-27T06:30:39.903Z,51.18
2017-06-27T06:31:20.359Z,51.16
2017-06-27T06:32:00.821Z,51.09
2017-06-27T06:32:41.277Z,50.99
2017-06-27T06:33:21.730Z,51.09
2017-06-27T06:34:02.240Z,50.99
2017-06-27T06:34:42.626Z,51.09
2017-06-27T06:35:23.081Z,50.79
2017-06-27T06:36:03.531Z,50.89
2017-06-27T06:36:43.988Z,50.89
2017-06-27T06:37:24.447Z,50.89
2017-06-27T06:38:04.915Z,50.99
2017-06-27T06:38:45.381Z,50.89
2017-06-27T06:39:25.830Z,50.99
2017-06-27T06:40:06.281Z,51.09
2017-06-27T06:40:46.735Z,50.99
2017-06-27T06:41:27.187Z,51.09
2017-06-27T06:42:07.662Z,50.89
2017-06-27T06:42:48.120Z,51.09
2017-06-27T06:43:28.581Z,50.99
2017-06-27T06:44:09.042Z,51.09
2017-06-27T06:44:49.500Z,50.99
2017-06-27T06:45:29.959Z,50.99
2017-06-27T06:46:10.415Z,50.79
2017-06-27T06:46:50.871Z,50.89
2017-06-27T06:47:31.363Z,50.79
2017-06-27T06:48:11.765Z,50.79
2017-06-27T06:48:52.224Z,50.79
2017-06-27T06:49:32.685Z,50.79
2017-06-27T06:50:13.148Z,50.99
2017-06-27T06:50:53.611Z,50.99
2017-06-27T06:51:34.067Z,50.99
2017-06-27T06:52:14.530Z,50.99
2017-06-27T06:52:54.987Z,50.7
2017-06-27T06:53:35.453Z,50.99
2017-06-27T06:54:15.915Z,50.7
2017-06-27T06:54:56.373Z,50.99
2017-06-27T06:55:36.831Z,50.99
2017-06-27T06:56:17.284Z,50.79
2017-06-27T06:56:57.742Z,50.89
2017-06-27T06:57:38.203Z,50.79
2017-06-27T06:58:18.710Z,51.09
2017-06-27T06:58:59.165Z,51.09
2017-06-27T06:59:39.629Z,51.28
2017-06-27T07:00:20.089Z,51.09
2017-06-27T07:01:00.552Z,50.7
2017-06-27T07:01:41.016Z,50.6
2017-06-27T07:02:21.477Z,50.79
2017-06-27T07:03:01.935Z,50.7
2017-06-27T07:03:42.394Z,50.62
2017-06-27T07:04:22.853Z,50.72
2017-06-27T07:05:03.314Z,50.7
2017-06-27T07:05:43.769Z,50.72
2017-06-27T07:06:24.224Z,50.79
2017-06-27T07:07:04.673Z,51.11
2017-06-27T07:07:45.139Z,50.92
2017-06-27T07:08:25.602Z,50.72
2017-06-27T07:09:06.056Z,50.62
2017-06-27T07:09:46.512Z,50.53
2017-06-27T07:10:26.970Z,50.53
2017-06-27T07:11:07.432Z,50.82
2017-06-27T07:11:47.885Z,50.43
2017-06-27T07:12:28.341Z,50.62
2017-06-27T07:13:08.796Z,50.62
2017-06-27T07:13:49.256Z,50.82
2017-06-27T07:14:29.718Z,50.53
2017-06-27T07:15:10.174Z,50.53
2017-06-27T07:15:50.632Z,50.53
2017-06-27T07:16:31.089Z,50.53
2017-06-27T07:17:11.549Z,50.82
2017-06-27T07:17:52.012Z,50.62
2017-06-27T07:18:32.461Z,50.53
2017-06-27T07:19:12.917Z,50.53
2017-06-27T07:19:53.373Z,50.53
2017-06-27T07:20:33.838Z,50.62
2017-06-27T07:21:14.290Z,50.82
2017-06-27T07:21:54.752Z,50.82
2017-06-27T07:22:35.207Z,50.82
2017-06-27T07:23:15.667Z,50.82
2017-06-27T07:23:56.125Z,50.72
2017-06-27T07:24:36.581Z,50.72
2017-06-27T07:25:17.046Z,50.72
2017-06-27T07:25:57.502Z,50.72
2017-06-27T07:26:37.964Z,50.62
2017-06-27T07:27:18.424Z,50.72
2017-06-27T07:27:58.887Z,50.62
2017-06-27T07:28:39.348Z,50.62
2017-06-27T07:29:19.811Z,50.53
2017-06-27T07:30:00.263Z,50.72
2017-06-27T07:30:40.721Z,50.82
2017-06-27T07:31:21.180Z,50.72
2017-06-27T07:32:01.638Z,51.11
2017-06-27T07:32:42.091Z,50.82
2017-06-27T07:33:22.560Z,50.53
2017-06-27T07:34:03.015Z,50.82
2017-06-27T07:34:43.479Z,50.53
2017-06-27T07:35:23.936Z,50.62
2017-06-27T07:36:04.402Z,50.53
2017-06-27T07:36:44.859Z,50.74
2017-06-27T07:37:25.316Z,50.84
2017-06-27T07:38:06.286Z,50.94
2017-06-27T07:38:46.752Z,51.04
2017-06-27T07:39:27.212Z,50.94
2017-06-27T07:40:07.672Z,50.94
2017-06-27T07:40:48.137Z,50.56
2017-06-27T07:41:28.597Z,50.46
2017-06-27T07:42:09.061Z,50.46
2017-06-27T07:42:49.514Z,50.46
2017-06-27T07:43:29.962Z,50.46
2017-06-27T07:44:10.417Z,50.56
2017-06-27T07:44:50.870Z,50.56
2017-06-27T07:45:31.329Z,50.16
2017-06-27T07:46:11.782Z,50.07
2017-06-27T07:46:52.250Z,49.97
2017-06-27T07:47:32.701Z,50.16
2017-06-27T07:48:13.160Z,49.87
2017-06-27T07:48:53.615Z,50.07
2017-06-27T07:49:34.073Z,50.07
2017-06-27T07:50:14.537Z,50.36
2017-06-27T07:50:54.995Z,50.16
2017-06-27T07:51:35.451Z,50.16
2017-06-27T07:52:15.902Z,50.07
2017-06-27T07:52:56.367Z,50.16
2017-06-27T07:53:36.821Z,50.16
2017-06-27T07:54:17.295Z,50.16
2017-06-27T07:54:57.762Z,50.36
2017-06-27T07:55:38.211Z,50.16
2017-06-27T07:56:18.673Z,50.26
2017-06-27T07:56:59.153Z,50.26
2017-06-27T07:57:39.590Z,50.16
2017-06-27T07:58:20.053Z,49.97
2017-06-27T07:59:00.505Z,50.16
2017-06-27T07:59:40.970Z,50.07
2017-06-27T08:00:21.431Z,50.16
2017-06-27T08:01:01.888Z,50.07
2017-06-27T08:01:42.350Z,49.87
2017-06-27T08:02:22.804Z,49.87
2017-06-27T08:03:03.265Z,50.36
2017-06-27T08:03:43.714Z,50.26
2017-06-27T08:04:24.167Z,50.26
2017-06-27T08:05:04.625Z,50.36
2017-06-27T08:05:45.084Z,50.26
2017-06-27T08:06:25.542Z,50.16
2017-06-27T08:07:06.001Z,50.16
2017-06-27T08:07:46.455Z,50.07
2017-06-27T08:08:26.908Z,50.07
2017-06-27T08:09:07.368Z,50.29
2017-06-27T08:09:47.828Z,49.87
2017-06-27T08:10:28.285Z,50.07
2017-06-27T08:11:08.747Z,50.07
2017-06-27T08:11:49.200Z,49.97
2017-06-27T08:12:29.655Z,49.97
2017-06-27T08:13:10.150Z,49.87
2017-06-27T08:13:50.605Z,50.07
2017-06-27T08:14:31.061Z,50.07
2017-06-27T08:15:11.526Z,50.07
2017-06-27T08:15:51.983Z,50.07
2017-06-27T08:16:32.440Z,49.99
2017-06-27T08:17:12.909Z,50.38
2017-06-27T08:17:53.377Z,49.77
2017-06-27T08:18:33.840Z,49.87
2017-06-27T08:19:14.296Z,49.97
2017-06-27T08:19:54.758Z,49.8
2017-06-27T08:20:35.221Z,49.8
2017-06-27T08:21:15.673Z,49.99
2017-06-27T08:21:56.134Z,49.68
2017-06-27T08:22:36.595Z,49.77
2017-06-27T08:23:17.054Z,49.99
2017-06-27T08:23:57.513Z,49.87
2017-06-27T08:24:37.971Z,49.97
2017-06-27T08:25:18.438Z,49.8
2017-06-27T08:25:58.897Z,50.29
2017-06-27T08:26:39.355Z,49.77
2017-06-27T08:27:19.829Z,49.8
2017-06-27T08:28:00.261Z,49.77
2017-06-27T08:28:40.711Z,49.9
2017-06-27T08:29:21.176Z,49.99
2017-06-27T08:30:01.658Z,49.87
2017-06-27T08:30:42.117Z,49.99
2017-06-27T08:31:22.570Z,49.8
2017-06-27T08:32:03.024Z,49.8
2017-06-27T08:32:43.480Z,49.8
2017-06-27T08:33:23.942Z,49.61
2017-06-27T08:34:04.398Z,49.51
2017-06-27T08:34:46.269Z,49.71
2017-06-27T08:35:26.724Z,49.41
2017-06-27T08:36:07.177Z,49.32
2017-06-27T08:36:47.639Z,49.41
2017-06-27T08:37:28.097Z,49.51
2017-06-27T08:38:08.560Z,49.51
2017-06-27T08:38:49.019Z,49.51
2017-06-27T08:39:29.477Z,49.51
2017-06-27T08:40:09.933Z,49.51
2017-06-27T08:40:50.381Z,49.41
2017-06-27T08:41:30.845Z,49.41
2017-06-27T08:42:11.300Z,49.51
2017-06-27T08:42:51.749Z,49.41